Airfield :
LOGIN :

Register | Disclaimer

   EN    FR    IT 

 










Legend :    VFR   Marginal VFR   IFR   Intensive IFR   Very Intensive IFR
Visi :
Ceiling :
>= 8 km
>= 3000ft
5 to 8 km
1000 to 3000 ft
1500m to 5 km
500 to 1000 ft
800 to 1500m
200 to 500 ft
< 800m
< 200 ft
Symbols :   Thunderstorms  Fog  Heavy snow  Heavy precipitations  Wind > 20 kt
SIGMETs :     Misc.  Thunderstorms  Icing  Turbulence  Mountain Waves  Volcanic Ashes






- Airport Elevation : 2945 ft
- IATA code : RGS


LEBG - Burgos

CURRENT METAR :
  • 161930Z AUTO 21014KT CAVOK 10/06 Q1025

EXPIRED METARs :
  • 161900Z 22013KT 9999 FEW035 10/07 Q1025
  • 161830Z 23014KT 9999 SCT032 11/07 Q1025
  • 161800Z 23017KT 9999 FEW035 11/07 Q1024
  • 161730Z 23015KT 9999 FEW055 12/07 Q1024
  • 161700Z 23015KT 210V270 9999 FEW055 12/07 Q1024

TAF TAF LEBG
Valid from the 16 at 18:00 until the 17 at 03:00 UTC


161700Z 1618/1703 22014KT 9999 FEW040



MET'MAP, your aeronautical weather chart ! - Copyright ORBIFLY December 2007 - Disclaimer

ORBIFLY MET'MAP TEAM :

Programming & Development : Alexandra Zaïnal
Concept & original design : Baudouin d'Aumeries
Assistance for programming : Marc-Olivier Méhu
Technical & hardware support : Manuel Goepfert

Contact : metmap@orbifly.com




SOURCES & CREDITS :

   NOAA